createdAt,value
2023-05-22T00:02:00.122Z,31.20
2023-05-22T00:04:30.287Z,30.70
2023-05-22T00:07:00.173Z,30.07
2023-05-22T00:09:30.036Z,25.60
2023-05-22T00:11:59.982Z,33.13
2023-05-22T00:14:29.811Z,27.70
2023-05-22T00:17:00.185Z,27.57
2023-05-22T00:19:30.432Z,29.63
2023-05-22T00:22:00.610Z,37.47
2023-05-22T00:24:30.451Z,29.63
2023-05-22T00:27:00.678Z,34.27
2023-05-22T00:29:31.094Z,25.00
2023-05-22T00:32:01.265Z,29.42
2023-05-22T00:34:31.167Z,32.23
2023-05-22T00:37:01.134Z,29.60
2023-05-22T00:39:30.975Z,27.87
2023-05-22T00:42:01.468Z,28.07
2023-05-22T00:44:31.457Z,29.60
2023-05-22T00:47:01.631Z,29.73
2023-05-22T00:49:31.794Z,34.23
2023-05-22T00:52:02.503Z,31.03
2023-05-22T00:54:33.710Z,29.20
2023-05-22T00:57:04.445Z,32.87
2023-05-22T00:59:35.413Z,32.47
2023-05-22T01:02:07.071Z,33.47
2023-05-22T01:04:37.394Z,31.93
2023-05-22T01:07:07.649Z,34.60
2023-05-22T01:09:37.504Z,32.93
2023-05-22T01:12:30.246Z,34.13
2023-05-22T01:15:09.235Z,31.27
2023-05-22T01:17:42.191Z,33.53
2023-05-22T01:20:25.526Z,35.88
2023-05-22T01:23:16.236Z,34.58
2023-05-22T01:26:08.306Z,32.93
2023-05-22T01:29:06.576Z,31.97
2023-05-22T01:31:39.465Z,34.97
2023-05-22T01:34:13.166Z,31.50
2023-05-22T01:36:45.243Z,34.07
2023-05-22T01:39:16.531Z,32.20
2023-05-22T01:41:47.800Z,29.47
2023-05-22T01:44:17.755Z,37.60
2023-05-22T01:46:47.597Z,31.80
2023-05-22T01:49:18.197Z,32.33
2023-05-22T01:51:59.781Z,32.07
2023-05-22T01:54:39.841Z,31.80
2023-05-22T01:57:12.751Z,30.87
2023-05-22T01:59:52.490Z,37.10
2023-05-22T02:02:24.330Z,38.10
2023-05-22T02:04:59.903Z,33.70
2023-05-22T02:07:31.617Z,31.00
2023-05-22T02:10:03.115Z,30.60
2023-05-22T02:12:33.304Z,35.27
2023-05-22T02:15:06.329Z,34.83
2023-05-22T02:17:44.794Z,33.03
2023-05-22T02:20:16.157Z,36.40
2023-05-22T02:22:48.196Z,37.37
2023-05-22T02:25:18.158Z,30.30
2023-05-22T02:27:49.748Z,36.67
2023-05-22T02:30:19.325Z,33.37
2023-05-22T02:32:50.934Z,36.17
2023-05-22T02:35:21.149Z,31.95
2023-05-22T02:37:51.036Z,36.23
2023-05-22T02:40:20.957Z,35.38
2023-05-22T02:42:51.980Z,33.40
2023-05-22T02:45:22.037Z,44.55
2023-05-22T02:47:52.054Z,36.17
2023-05-22T02:50:21.773Z,37.73
2023-05-22T02:52:51.461Z,34.50
2023-05-22T02:55:21.472Z,38.67
2023-05-22T02:57:51.699Z,35.68
2023-05-22T03:00:22.253Z,37.08
2023-05-22T03:02:52.214Z,36.30
2023-05-22T03:05:22.021Z,38.20
2023-05-22T03:07:54.072Z,39.23
2023-05-22T03:10:24.670Z,39.54
2023-05-22T03:12:54.892Z,36.68
2023-05-22T03:15:24.681Z,40.17
2023-05-22T03:17:56.462Z,41.80
2023-05-22T03:20:26.477Z,36.58
2023-05-22T03:22:56.361Z,37.15
2023-05-22T03:25:26.189Z,39.90
2023-05-22T03:27:56.048Z,37.00
2023-05-22T03:30:26.840Z,41.53
2023-05-22T03:32:58.796Z,40.90
2023-05-22T03:35:28.622Z,40.97
2023-05-22T03:37:58.654Z,45.47
2023-05-22T03:40:28.215Z,43.73
2023-05-22T03:42:58.255Z,50.07
2023-05-22T03:45:28.134Z,42.77
2023-05-22T03:47:58.852Z,56.40
2023-05-22T03:50:28.860Z,50.52
2023-05-22T03:52:58.726Z,89.23
2023-05-22T03:55:30.734Z,71.97
2023-05-22T03:58:00.554Z,62.87
2023-05-22T04:00:31.663Z,53.17
2023-05-22T04:03:01.776Z,61.83
2023-05-22T04:05:32.331Z,51.93
2023-05-22T04:08:02.171Z,54.87
2023-05-22T04:10:31.902Z,45.55
2023-05-22T04:13:01.764Z,57.13
2023-05-22T04:15:32.945Z,43.75
2023-05-22T04:18:02.989Z,44.10
2023-05-22T04:20:33.214Z,38.20
2023-05-22T04:23:03.087Z,51.53
2023-05-22T04:25:34.273Z,42.37
2023-05-22T04:28:06.354Z,63.85
2023-05-22T04:30:38.262Z,42.83
2023-05-22T04:33:08.719Z,38.90
2023-05-22T04:35:40.653Z,39.08
2023-05-22T04:38:11.584Z,37.00
2023-05-22T04:40:41.714Z,43.40
2023-05-22T04:43:12.590Z,48.83
2023-05-22T04:45:42.896Z,32.57
2023-05-22T04:48:12.870Z,36.70
2023-05-22T04:50:44.412Z,45.30
2023-05-22T04:53:14.711Z,47.55
2023-05-22T04:55:45.966Z,35.43
2023-05-22T04:58:15.885Z,51.18
2023-05-22T05:00:45.792Z,52.77
2023-05-22T05:03:15.919Z,46.37
2023-05-22T05:05:45.978Z,54.23
2023-05-22T05:08:16.091Z,79.15
2023-05-22T05:10:46.095Z,90.53
2023-05-22T05:13:15.951Z,76.73
2023-05-22T05:15:47.687Z,58.00
2023-05-22T05:18:17.368Z,107.17
2023-05-22T05:20:47.287Z,81.20
2023-05-22T05:23:17.296Z,70.03
2023-05-22T05:25:46.863Z,85.67
2023-05-22T05:28:16.829Z,77.72
2023-05-22T05:30:46.940Z,78.80
2023-05-22T05:33:30.893Z,106.75
2023-05-22T05:36:18.500Z,70.27
2023-05-22T05:38:48.829Z,54.40
2023-05-22T05:41:19.177Z,75.17
2023-05-22T05:43:52.250Z,52.83
2023-05-22T05:46:22.049Z,56.18
2023-05-22T05:48:51.893Z,56.07
2023-05-22T05:51:22.207Z,44.90
2023-05-22T05:53:52.754Z,54.30
2023-05-22T05:56:22.861Z,60.75
2023-05-22T05:58:53.587Z,39.67
2023-05-22T06:01:39.937Z,55.70
2023-05-22T06:04:11.997Z,48.35
2023-05-22T06:06:42.353Z,50.90
2023-05-22T06:09:14.076Z,37.90
2023-05-22T06:12:01.629Z,44.17
2023-05-22T06:14:31.658Z,41.90
2023-05-22T06:17:01.312Z,37.20
2023-05-22T06:19:31.316Z,38.90
2023-05-22T06:22:01.280Z,35.93
2023-05-22T06:24:32.509Z,36.07
2023-05-22T06:27:04.057Z,36.80
2023-05-22T06:29:34.194Z,35.30
2023-05-22T06:32:06.723Z,35.75
2023-05-22T06:34:38.118Z,37.33
2023-05-22T06:37:08.568Z,36.30
2023-05-22T06:39:40.799Z,43.30
2023-05-22T06:42:28.404Z,47.13
2023-05-22T06:45:08.110Z,38.40
2023-05-22T06:47:39.738Z,38.20
2023-05-22T06:50:11.924Z,43.64
2023-05-22T06:52:41.540Z,41.85
2023-05-22T06:55:12.865Z,43.98
2023-05-22T06:57:44.798Z,36.98
2023-05-22T07:00:15.475Z,38.70
2023-05-22T07:02:56.104Z,36.63
2023-05-22T07:05:27.746Z,41.03
2023-05-22T07:07:59.334Z,38.37
2023-05-22T07:10:29.198Z,37.27
2023-05-22T07:13:00.023Z,38.80
2023-05-22T07:15:31.326Z,36.73
2023-05-22T07:18:03.036Z,37.33
2023-05-22T07:20:32.949Z,33.43
2023-05-22T07:23:04.588Z,33.23
2023-05-22T07:25:34.520Z,37.77
2023-05-22T07:28:08.121Z,37.05
2023-05-22T07:30:39.987Z,36.87
2023-05-22T07:33:10.222Z,37.40
2023-05-22T07:35:41.175Z,34.33
2023-05-22T07:38:11.723Z,36.10
2023-05-22T07:40:42.678Z,35.80
2023-05-22T07:43:14.521Z,36.53
2023-05-22T07:45:44.388Z,43.25
2023-05-22T07:48:15.130Z,41.27
2023-05-22T07:50:46.390Z,44.40
2023-05-22T07:53:16.354Z,44.35
2023-05-22T07:55:47.046Z,41.43
2023-05-22T07:58:17.023Z,41.13
2023-05-22T08:00:47.524Z,42.37
2023-05-22T08:03:18.063Z,41.50
2023-05-22T08:05:48.436Z,40.53
2023-05-22T08:08:18.176Z,47.17
2023-05-22T08:11:03.159Z,44.30
2023-05-22T08:13:20.862Z,44.87
2023-05-22T08:15:50.757Z,39.37
2023-05-22T08:18:22.441Z,44.67
2023-05-22T08:20:54.979Z,45.50
2023-05-22T08:23:24.979Z,43.80
2023-05-22T08:25:54.826Z,43.80
2023-05-22T08:28:24.564Z,46.42
2023-05-22T08:30:55.195Z,44.10
2023-05-22T08:33:25.177Z,40.27
2023-05-22T08:35:55.050Z,43.87
2023-05-22T08:38:24.752Z,41.73
2023-05-22T08:40:57.793Z,44.97
2023-05-22T08:43:31.453Z,45.40
2023-05-22T08:46:09.271Z,44.30
2023-05-22T08:48:41.507Z,40.03
2023-05-22T08:51:16.464Z,38.33
2023-05-22T08:53:49.340Z,41.10
2023-05-22T08:56:19.735Z,41.43
2023-05-22T08:58:51.499Z,40.13
2023-05-22T09:01:21.744Z,45.93
2023-05-22T09:03:52.901Z,34.33
2023-05-22T09:06:23.139Z,39.90
2023-05-22T09:08:53.311Z,39.60
2023-05-22T09:11:23.150Z,37.07
2023-05-22T09:13:53.280Z,43.53
2023-05-22T09:16:23.256Z,37.58
2023-05-22T09:18:53.103Z,43.33
2023-05-22T09:23:54.699Z,44.23
2023-05-22T09:26:27.498Z,43.90
2023-05-22T09:28:58.954Z,44.47
2023-05-22T09:31:30.783Z,39.35
2023-05-22T09:34:00.389Z,47.65
2023-05-22T09:36:34.182Z,48.98
2023-05-22T09:39:05.249Z,49.77
2023-05-22T09:41:39.974Z,50.77
2023-05-22T09:44:16.018Z,51.02
2023-05-22T09:46:48.712Z,51.03
2023-05-22T09:49:18.998Z,47.57
2023-05-22T09:51:49.895Z,51.20
2023-05-22T09:54:21.680Z,52.83
2023-05-22T09:56:53.448Z,50.12
2023-05-22T09:59:26.667Z,44.50
2023-05-22T10:01:57.232Z,46.33
2023-05-22T10:04:28.134Z,46.90
2023-05-22T10:07:00.856Z,44.60
2023-05-22T10:09:34.315Z,48.23
2023-05-22T10:12:09.035Z,49.92
2023-05-22T10:14:39.136Z,44.70
2023-05-22T10:17:11.231Z,46.63
2023-05-22T10:19:44.499Z,43.23
2023-05-22T10:22:16.935Z,41.10
2023-05-22T10:24:49.213Z,41.63
2023-05-22T10:27:19.062Z,43.80
2023-05-22T10:30:14.497Z,39.93
2023-05-22T10:33:11.539Z,45.73
2023-05-22T10:35:55.840Z,45.53
2023-05-22T10:39:00.060Z,43.60
2023-05-22T10:41:30.927Z,39.23
2023-05-22T10:44:00.804Z,36.87
2023-05-22T10:46:35.118Z,38.63
2023-05-22T10:49:05.097Z,38.03
2023-05-22T10:51:35.469Z,40.20
2023-05-22T10:54:06.537Z,37.20
2023-05-22T10:56:36.903Z,43.00
2023-05-22T10:59:08.472Z,39.33
2023-05-22T11:01:38.840Z,34.97
2023-05-22T11:04:16.155Z,37.24
2023-05-22T11:06:49.947Z,38.07
2023-05-22T11:09:37.510Z,37.87
2023-05-22T11:12:20.602Z,31.50
2023-05-22T11:14:52.282Z,38.35
2023-05-22T11:17:24.100Z,31.80
2023-05-22T11:20:08.202Z,32.63
2023-05-22T11:22:46.796Z,38.90
2023-05-22T11:25:21.013Z,28.45
2023-05-22T11:27:51.237Z,32.67
2023-05-22T11:30:23.149Z,31.82
2023-05-22T11:32:53.253Z,27.57
2023-05-22T11:35:23.813Z,28.83
2023-05-22T11:37:55.144Z,31.00
2023-05-22T11:40:26.199Z,29.27
2023-05-22T11:42:56.671Z,29.57
2023-05-22T11:45:27.573Z,32.97
2023-05-22T11:47:57.325Z,29.50
2023-05-22T11:50:41.051Z,29.07
2023-05-22T11:52:59.662Z,29.05
2023-05-22T11:55:29.526Z,28.20
2023-05-22T11:58:01.084Z,28.63
2023-05-22T12:00:32.472Z,30.15
2023-05-22T12:03:02.281Z,30.40
2023-05-22T12:05:33.618Z,33.33
2023-05-22T12:08:03.213Z,34.10
2023-05-22T12:10:33.053Z,29.55
2023-05-22T12:13:02.917Z,31.50
2023-05-22T12:15:32.470Z,29.25
2023-05-22T12:18:02.418Z,29.50
2023-05-22T12:20:32.610Z,29.65
2023-05-22T12:23:02.189Z,26.60
2023-05-22T12:25:39.805Z,26.33
2023-05-22T12:28:11.478Z,29.65
2023-05-22T12:30:42.686Z,33.17
2023-05-22T12:33:16.233Z,27.33
2023-05-22T12:35:46.153Z,35.37
2023-05-22T12:38:16.080Z,30.68
2023-05-22T12:40:46.495Z,33.70
2023-05-22T12:43:16.376Z,30.80
2023-05-22T12:45:46.301Z,28.00
2023-05-22T12:48:16.490Z,32.17
2023-05-22T12:50:46.965Z,30.73
2023-05-22T12:53:16.785Z,32.03
2023-05-22T12:55:46.647Z,35.83
2023-05-22T12:58:16.360Z,33.20
2023-05-22T13:00:46.288Z,28.20
2023-05-22T13:03:16.358Z,30.33
2023-05-22T13:05:46.126Z,27.35
2023-05-22T13:08:16.219Z,31.52
2023-05-22T13:10:46.138Z,29.20
2023-05-22T13:13:15.994Z,28.10
2023-05-22T13:15:46.437Z,27.97
2023-05-22T13:18:16.591Z,26.53
2023-05-22T13:20:46.446Z,31.87
2023-05-22T13:23:16.286Z,26.40
2023-05-22T13:25:46.130Z,30.67
2023-05-22T13:28:15.987Z,28.47
2023-05-22T13:30:45.916Z,23.73
2023-05-22T13:33:15.460Z,28.95
2023-05-22T13:35:45.455Z,27.80
2023-05-22T13:38:15.097Z,26.00
2023-05-22T13:40:46.919Z,28.17
2023-05-22T13:43:16.297Z,26.10
2023-05-22T13:45:46.169Z,27.30
2023-05-22T13:48:16.087Z,29.87
2023-05-22T13:50:46.001Z,31.47
2023-05-22T13:53:15.891Z,26.47
2023-05-22T13:55:46.121Z,25.57
2023-05-22T13:58:16.106Z,32.85
2023-05-22T14:00:46.319Z,25.97
2023-05-22T14:03:17.820Z,25.37
2023-05-22T14:05:48.137Z,25.65
2023-05-22T14:08:18.072Z,25.92
2023-05-22T14:10:47.995Z,25.60
2023-05-22T14:13:17.869Z,24.80
2023-05-22T14:15:47.800Z,24.90
2023-05-22T14:18:17.505Z,23.00
2023-05-22T14:20:47.752Z,22.93
2023-05-22T14:23:17.447Z,22.10
2023-05-22T14:25:47.649Z,23.27
2023-05-22T14:28:17.297Z,28.50
2023-05-22T14:30:47.310Z,23.03
2023-05-22T14:33:17.180Z,23.30
2023-05-22T14:35:48.381Z,19.10
2023-05-22T14:38:18.225Z,19.40
2023-05-22T14:40:48.117Z,16.10
2023-05-22T14:43:17.972Z,15.47
2023-05-22T14:45:47.873Z,16.73
2023-05-22T14:48:17.484Z,18.10
2023-05-22T14:50:48.442Z,10.90
2023-05-22T14:53:18.602Z,10.15
2023-05-22T14:55:48.762Z,12.93
2023-05-22T14:58:18.771Z,13.95
2023-05-22T15:00:48.674Z,16.50
2023-05-22T15:03:19.053Z,15.30
2023-05-22T15:05:49.161Z,18.33
2023-05-22T15:08:20.454Z,13.95
2023-05-22T15:10:50.461Z,15.07
2023-05-22T15:13:21.397Z,13.87
2023-05-22T15:15:51.622Z,13.85
2023-05-22T15:18:21.209Z,12.60
2023-05-22T15:20:51.142Z,15.10
2023-05-22T15:23:23.826Z,16.53
2023-05-22T15:25:54.619Z,12.70
2023-05-22T15:28:24.518Z,16.75
2023-05-22T15:30:54.358Z,13.37
2023-05-22T15:33:24.227Z,13.30
2023-05-22T15:35:54.057Z,12.53
2023-05-22T15:38:24.193Z,11.63
2023-05-22T15:40:54.502Z,11.65
2023-05-22T15:43:26.027Z,13.17
2023-05-22T15:45:56.008Z,9.90
2023-05-22T15:48:25.964Z,10.53
2023-05-22T15:50:55.845Z,9.03
2023-05-22T15:53:25.845Z,8.13
2023-05-22T15:55:55.699Z,10.83
2023-05-22T15:58:25.550Z,8.53
2023-05-22T16:00:58.238Z,7.90
2023-05-22T16:03:28.245Z,9.10
2023-05-22T16:05:58.171Z,11.37
2023-05-22T16:08:27.999Z,9.13
2023-05-22T16:10:59.789Z,6.75
2023-05-22T16:13:30.019Z,11.50
2023-05-22T16:15:59.894Z,7.83
2023-05-22T16:18:29.786Z,10.90
2023-05-22T16:20:59.621Z,7.03
2023-05-22T16:23:29.479Z,11.57
2023-05-22T16:25:59.327Z,8.63
2023-05-22T16:28:29.169Z,6.47
2023-05-22T16:30:59.083Z,10.07
2023-05-22T16:33:28.940Z,9.00
2023-05-22T16:35:59.084Z,8.30
2023-05-22T16:38:28.926Z,7.80
2023-05-22T16:40:58.768Z,8.63
2023-05-22T16:43:28.790Z,7.27
2023-05-22T16:45:58.643Z,9.23
2023-05-22T16:48:28.547Z,8.48
2023-05-22T16:50:58.514Z,7.10
2023-05-22T16:53:28.376Z,6.77
2023-05-22T16:55:59.706Z,6.83
2023-05-22T16:58:29.558Z,9.70
2023-05-22T17:00:59.596Z,7.13
2023-05-22T17:03:29.546Z,6.63
2023-05-22T17:05:59.587Z,5.60
2023-05-22T17:08:29.705Z,7.40
2023-05-22T17:10:59.557Z,5.47
2023-05-22T17:13:29.496Z,4.03
2023-05-22T17:15:59.697Z,3.65
2023-05-22T17:18:29.821Z,3.43
2023-05-22T17:21:00.305Z,6.57
2023-05-22T17:23:30.448Z,2.85
2023-05-22T17:26:01.001Z,2.87
2023-05-22T17:28:31.250Z,5.15
2023-05-22T17:31:01.243Z,3.60
2023-05-22T17:33:31.860Z,3.57
2023-05-22T17:36:01.924Z,4.00
2023-05-22T17:38:31.776Z,6.03
2023-05-22T17:41:01.484Z,5.25
2023-05-22T17:43:33.009Z,7.77
2023-05-22T17:46:03.574Z,8.60
2023-05-22T17:48:34.415Z,5.67
2023-05-22T17:51:04.389Z,5.40
2023-05-22T17:53:35.705Z,3.70
2023-05-22T17:56:07.032Z,7.37
2023-05-22T17:58:36.604Z,3.35
2023-05-22T18:01:06.477Z,3.30
2023-05-22T18:03:36.466Z,3.50
2023-05-22T18:06:08.348Z,3.43
2023-05-22T18:08:39.805Z,4.93
2023-05-22T18:11:09.636Z,5.10
2023-05-22T18:13:39.512Z,4.00
2023-05-22T18:16:11.207Z,6.72
2023-05-22T18:18:41.079Z,3.60
2023-05-22T18:21:11.464Z,5.60
2023-05-22T18:23:41.733Z,7.25
2023-05-22T18:26:12.997Z,3.60
2023-05-22T18:28:42.867Z,3.93
2023-05-22T18:31:13.041Z,5.80
2023-05-22T18:33:44.373Z,6.10
2023-05-22T18:36:14.331Z,7.45
2023-05-22T18:38:44.179Z,6.77
2023-05-22T18:41:14.382Z,5.10
2023-05-22T18:43:44.238Z,5.13
2023-05-22T18:46:14.075Z,7.93
2023-05-22T18:48:43.952Z,5.50
2023-05-22T18:51:13.796Z,6.20
2023-05-22T18:53:44.168Z,6.70
2023-05-22T18:56:16.273Z,8.72
2023-05-22T18:58:46.132Z,6.87
2023-05-22T19:01:17.262Z,5.63
2023-05-22T19:03:47.147Z,7.53
2023-05-22T19:06:18.768Z,7.47
2023-05-22T19:08:48.624Z,5.80
2023-05-22T19:11:18.538Z,5.97
2023-05-22T19:13:48.377Z,6.37
2023-05-22T19:16:18.460Z,4.42
2023-05-22T19:18:48.337Z,7.20
2023-05-22T19:21:18.251Z,7.83
2023-05-22T19:23:48.658Z,4.60
2023-05-22T19:26:18.279Z,5.72
2023-05-22T19:28:48.373Z,6.10
2023-05-22T19:31:18.181Z,5.90
2023-05-22T19:33:48.097Z,6.57
2023-05-22T19:36:18.198Z,5.55
2023-05-22T19:38:48.268Z,6.43
2023-05-22T19:41:18.143Z,6.10
2023-05-22T19:43:47.973Z,4.97
2023-05-22T19:46:17.828Z,6.83
2023-05-22T19:48:47.683Z,5.07
2023-05-22T19:51:17.536Z,7.13
2023-05-22T19:53:47.441Z,6.03
2023-05-22T19:56:17.311Z,7.40
2023-05-22T19:58:47.161Z,8.27
2023-05-22T20:01:17.616Z,6.33
2023-05-22T20:03:47.834Z,8.63
2023-05-22T20:06:17.617Z,6.67
2023-05-22T20:08:47.759Z,8.10
2023-05-22T20:11:17.603Z,7.17
2023-05-22T20:13:47.442Z,7.30
2023-05-22T20:16:17.391Z,8.25
2023-05-22T20:18:48.700Z,7.97
2023-05-22T20:21:19.134Z,7.60
2023-05-22T20:23:48.983Z,8.00
2023-05-22T20:26:19.712Z,8.35
2023-05-22T20:28:49.560Z,6.60
2023-05-22T20:31:19.723Z,8.08
2023-05-22T20:33:49.626Z,9.23
2023-05-22T20:36:19.178Z,10.38
2023-05-22T20:38:49.006Z,6.93
2023-05-22T20:41:19.620Z,8.67
2023-05-22T20:43:50.361Z,7.77
2023-05-22T20:46:20.307Z,6.95
2023-05-22T20:48:51.340Z,10.17
2023-05-22T20:51:21.466Z,8.88
2023-05-22T20:53:53.363Z,9.23
2023-05-22T20:56:23.243Z,8.27
2023-05-22T20:58:53.105Z,10.50
2023-05-22T21:01:24.274Z,10.25
2023-05-22T21:03:56.649Z,11.90
2023-05-22T21:06:26.404Z,7.97
2023-05-22T21:08:58.072Z,8.53
2023-05-22T21:11:28.450Z,12.33
2023-05-22T21:13:58.670Z,8.00
2023-05-22T21:16:28.248Z,10.70
2023-05-22T21:18:58.180Z,11.17
2023-05-22T21:21:28.163Z,10.73
2023-05-22T21:23:57.997Z,13.37
2023-05-22T21:26:27.826Z,15.65
2023-05-22T21:28:57.840Z,13.10
2023-05-22T21:31:27.747Z,14.63
2023-05-22T21:33:57.607Z,16.77
2023-05-22T21:36:27.161Z,14.90
2023-05-22T21:38:58.667Z,15.43
2023-05-22T21:41:28.728Z,14.07
2023-05-22T21:43:59.404Z,14.80
2023-05-22T21:46:28.963Z,14.70
2023-05-22T21:48:58.816Z,16.93
2023-05-22T21:51:28.652Z,15.50
2023-05-22T21:53:58.488Z,11.23
2023-05-22T21:56:28.320Z,9.17
2023-05-22T21:58:58.476Z,8.68
2023-05-22T22:01:28.327Z,8.30
2023-05-22T22:03:58.206Z,8.70
2023-05-22T22:06:28.116Z,7.87
2023-05-22T22:08:59.665Z,8.37
2023-05-22T22:11:29.918Z,8.90
2023-05-22T22:13:59.759Z,5.10
2023-05-22T22:16:29.331Z,4.85
2023-05-22T22:19:01.132Z,6.90
2023-05-22T22:21:32.729Z,7.20
2023-05-22T22:24:02.667Z,5.77
2023-05-22T22:26:32.962Z,6.33
2023-05-22T22:29:03.081Z,6.87
2023-05-22T22:31:33.301Z,7.40
2023-05-22T22:34:04.852Z,5.30
2023-05-22T22:36:35.546Z,6.90
2023-05-22T22:39:05.228Z,6.15
2023-05-22T22:41:34.814Z,7.35
2023-05-22T22:44:04.704Z,7.70
2023-05-22T22:46:34.672Z,6.83
2023-05-22T22:49:04.877Z,7.08
2023-05-22T22:51:34.708Z,6.73
2023-05-22T22:54:04.641Z,8.97
2023-05-22T22:56:34.620Z,9.53
2023-05-22T22:59:04.473Z,7.93
2023-05-22T23:01:34.511Z,7.37
2023-05-22T23:04:04.467Z,9.13
2023-05-22T23:06:35.140Z,6.30
2023-05-22T23:09:05.160Z,8.10
2023-05-22T23:11:37.859Z,6.57
2023-05-22T23:14:09.740Z,7.87
2023-05-22T23:16:42.797Z,8.27
2023-05-22T23:19:13.672Z,6.73
2023-05-22T23:21:43.211Z,9.75
2023-05-22T23:24:12.797Z,9.40
2023-05-22T23:26:42.650Z,10.10
2023-05-22T23:29:13.195Z,9.60
2023-05-22T23:31:43.043Z,11.37
2023-05-22T23:34:13.169Z,10.63
2023-05-22T23:36:43.491Z,11.10
2023-05-22T23:39:13.654Z,10.32
2023-05-22T23:41:44.371Z,12.43
2023-05-22T23:44:14.537Z,11.05
2023-05-22T23:46:44.466Z,10.20
2023-05-22T23:49:14.803Z,13.47
2023-05-22T23:51:44.638Z,10.93
2023-05-22T23:54:14.430Z,13.75
2023-05-22T23:56:44.985Z,12.00
2023-05-22T23:59:15.727Z,9.17
